sensor_id;sensor_type;location;lat;lon;timestamp;P1;durP1;ratioP1;P2;durP2;ratioP2
76593;SDS011;65482;50.240;14.302;2023-11-21T00:02:13;7.75;;;2.85;;
76593;SDS011;65482;50.240;14.302;2023-11-21T00:04:39;4.75;;;2.40;;
76593;SDS011;65482;50.240;14.302;2023-11-21T00:07:04;4.30;;;2.40;;
76593;SDS011;65482;50.240;14.302;2023-11-21T00:09:31;4.70;;;2.30;;
76593;SDS011;65482;50.240;14.302;2023-11-21T00:11:57;4.90;;;2.50;;
76593;SDS011;65482;50.240;14.302;2023-11-21T00:14:24;5.13;;;2.25;;
76593;SDS011;65482;50.240;14.302;2023-11-21T00:16:50;4.28;;;2.03;;
76593;SDS011;65482;50.240;14.302;2023-11-21T00:19:15;4.50;;;2.20;;
76593;SDS011;65482;50.240;14.302;2023-11-21T00:21:42;8.45;;;3.00;;
76593;SDS011;65482;50.240;14.302;2023-11-21T00:24:09;5.55;;;2.90;;
76593;SDS011;65482;50.240;14.302;2023-11-21T00:26:35;5.13;;;2.50;;
76593;SDS011;65482;50.240;14.302;2023-11-21T00:29:03;4.18;;;2.30;;
76593;SDS011;65482;50.240;14.302;2023-11-21T00:31:28;4.60;;;2.25;;
76593;SDS011;65482;50.240;14.302;2023-11-21T00:33:56;7.32;;;3.50;;
76593;SDS011;65482;50.240;14.302;2023-11-21T00:36:21;8.65;;;2.65;;
76593;SDS011;65482;50.240;14.302;2023-11-21T00:38:47;4.22;;;2.63;;
76593;SDS011;65482;50.240;14.302;2023-11-21T00:41:13;5.35;;;2.58;;
76593;SDS011;65482;50.240;14.302;2023-11-21T00:43:39;6.40;;;2.58;;
76593;SDS011;65482;50.240;14.302;2023-11-21T00:46:05;5.63;;;2.47;;
76593;SDS011;65482;50.240;14.302;2023-11-21T00:48:33;4.90;;;2.38;;
76593;SDS011;65482;50.240;14.302;2023-11-21T00:50:58;4.72;;;2.30;;
76593;SDS011;65482;50.240;14.302;2023-11-21T00:53:24;5.03;;;2.38;;
76593;SDS011;65482;50.240;14.302;2023-11-21T00:55:50;5.95;;;2.22;;
76593;SDS011;65482;50.240;14.302;2023-11-21T00:58:17;3.67;;;2.22;;
76593;SDS011;65482;50.240;14.302;2023-11-21T01:00:43;4.50;;;2.58;;
76593;SDS011;65482;50.240;14.302;2023-11-21T01:03:08;5.80;;;2.58;;
76593;SDS011;65482;50.240;14.302;2023-11-21T01:05:34;3.78;;;2.30;;
76593;SDS011;65482;50.240;14.302;2023-11-21T01:08:00;5.55;;;2.20;;
76593;SDS011;65482;50.240;14.302;2023-11-21T01:10:26;3.83;;;2.22;;
76593;SDS011;65482;50.240;14.302;2023-11-21T01:12:51;6.28;;;2.80;;
76593;SDS011;65482;50.240;14.302;2023-11-21T01:15:17;5.07;;;2.40;;
76593;SDS011;65482;50.240;14.302;2023-11-21T01:17:42;5.53;;;2.50;;
76593;SDS011;65482;50.240;14.302;2023-11-21T01:20:08;6.72;;;2.38;;
76593;SDS011;65482;50.240;14.302;2023-11-21T01:22:38;3.72;;;2.30;;
76593;SDS011;65482;50.240;14.302;2023-11-21T01:25:04;7.78;;;2.72;;
76593;SDS011;65482;50.240;14.302;2023-11-21T01:27:35;3.53;;;2.10;;
76593;SDS011;65482;50.240;14.302;2023-11-21T01:30:01;7.60;;;2.63;;
76593;SDS011;65482;50.240;14.302;2023-11-21T01:32:27;5.10;;;2.42;;
76593;SDS011;65482;50.240;14.302;2023-11-21T01:34:54;6.20;;;2.20;;
76593;SDS011;65482;50.240;14.302;2023-11-21T01:37:20;5.25;;;2.63;;
76593;SDS011;65482;50.240;14.302;2023-11-21T01:39:47;7.43;;;2.50;;
76593;SDS011;65482;50.240;14.302;2023-11-21T01:42:13;5.60;;;2.25;;
76593;SDS011;65482;50.240;14.302;2023-11-21T01:44:39;5.65;;;2.95;;
76593;SDS011;65482;50.240;14.302;2023-11-21T01:47:05;4.55;;;2.20;;
76593;SDS011;65482;50.240;14.302;2023-11-21T01:49:32;4.90;;;2.28;;
76593;SDS011;65482;50.240;14.302;2023-11-21T01:51:58;7.32;;;2.60;;
76593;SDS011;65482;50.240;14.302;2023-11-21T01:54:24;6.00;;;2.53;;
76593;SDS011;65482;50.240;14.302;2023-11-21T01:56:50;6.28;;;2.85;;
76593;SDS011;65482;50.240;14.302;2023-11-21T01:59:19;9.82;;;3.20;;
76593;SDS011;65482;50.240;14.302;2023-11-21T02:01:46;7.10;;;3.40;;
76593;SDS011;65482;50.240;14.302;2023-11-21T02:04:13;7.38;;;3.50;;
76593;SDS011;65482;50.240;14.302;2023-11-21T02:06:39;7.72;;;3.55;;
76593;SDS011;65482;50.240;14.302;2023-11-21T02:09:04;6.53;;;3.13;;
76593;SDS011;65482;50.240;14.302;2023-11-21T02:11:30;7.13;;;3.35;;
76593;SDS011;65482;50.240;14.302;2023-11-21T02:13:58;5.65;;;3.08;;
76593;SDS011;65482;50.240;14.302;2023-11-21T02:16:24;8.15;;;3.60;;
76593;SDS011;65482;50.240;14.302;2023-11-21T02:18:51;8.68;;;3.38;;
76593;SDS011;65482;50.240;14.302;2023-11-21T02:21:17;6.03;;;3.67;;
76593;SDS011;65482;50.240;14.302;2023-11-21T02:23:44;6.72;;;3.22;;
76593;SDS011;65482;50.240;14.302;2023-11-21T02:26:12;6.43;;;3.03;;
76593;SDS011;65482;50.240;14.302;2023-11-21T02:28:38;7.00;;;3.13;;
76593;SDS011;65482;50.240;14.302;2023-11-21T02:31:04;7.63;;;3.17;;
76593;SDS011;65482;50.240;14.302;2023-11-21T02:33:30;7.93;;;3.20;;
76593;SDS011;65482;50.240;14.302;2023-11-21T02:35:59;6.43;;;3.50;;
76593;SDS011;65482;50.240;14.302;2023-11-21T02:38:25;9.70;;;3.45;;
76593;SDS011;65482;50.240;14.302;2023-11-21T02:40:51;5.28;;;3.08;;
76593;SDS011;65482;50.240;14.302;2023-11-21T02:43:17;7.13;;;2.85;;
76593;SDS011;65482;50.240;14.302;2023-11-21T02:45:42;5.57;;;3.00;;
76593;SDS011;65482;50.240;14.302;2023-11-21T02:48:08;6.03;;;2.90;;
76593;SDS011;65482;50.240;14.302;2023-11-21T02:50:34;4.88;;;2.38;;
76593;SDS011;65482;50.240;14.302;2023-11-21T02:53:00;6.18;;;2.40;;
76593;SDS011;65482;50.240;14.302;2023-11-21T02:55:27;4.97;;;2.10;;
76593;SDS011;65482;50.240;14.302;2023-11-21T02:57:53;4.90;;;2.40;;
76593;SDS011;65482;50.240;14.302;2023-11-21T03:00:21;4.10;;;2.42;;
76593;SDS011;65482;50.240;14.302;2023-11-21T03:02:49;7.72;;;2.70;;
76593;SDS011;65482;50.240;14.302;2023-11-21T03:05:15;4.47;;;2.35;;
76593;SDS011;65482;50.240;14.302;2023-11-21T03:07:40;3.42;;;2.28;;
76593;SDS011;65482;50.240;14.302;2023-11-21T03:10:06;8.07;;;2.10;;
76593;SDS011;65482;50.240;14.302;2023-11-21T03:12:34;6.70;;;2.55;;
76593;SDS011;65482;50.240;14.302;2023-11-21T03:14:59;5.55;;;2.35;;
76593;SDS011;65482;50.240;14.302;2023-11-21T03:17:27;7.78;;;2.55;;
76593;SDS011;65482;50.240;14.302;2023-11-21T03:19:54;4.75;;;2.13;;
76593;SDS011;65482;50.240;14.302;2023-11-21T03:22:20;4.07;;;2.00;;
76593;SDS011;65482;50.240;14.302;2023-11-21T03:24:45;5.35;;;2.10;;
76593;SDS011;65482;50.240;14.302;2023-11-21T03:27:11;5.22;;;1.90;;
76593;SDS011;65482;50.240;14.302;2023-11-21T03:29:37;3.78;;;1.98;;
76593;SDS011;65482;50.240;14.302;2023-11-21T03:32:03;3.55;;;1.80;;
76593;SDS011;65482;50.240;14.302;2023-11-21T03:34:29;5.43;;;1.60;;
76593;SDS011;65482;50.240;14.302;2023-11-21T03:36:55;5.70;;;1.60;;
76593;SDS011;65482;50.240;14.302;2023-11-21T03:39:20;4.45;;;1.90;;
76593;SDS011;65482;50.240;14.302;2023-11-21T03:41:46;4.90;;;1.80;;
76593;SDS011;65482;50.240;14.302;2023-11-21T03:44:12;3.45;;;1.73;;
76593;SDS011;65482;50.240;14.302;2023-11-21T03:46:38;3.45;;;1.83;;
76593;SDS011;65482;50.240;14.302;2023-11-21T03:49:03;4.13;;;1.70;;
76593;SDS011;65482;50.240;14.302;2023-11-21T03:51:29;5.72;;;1.65;;
76593;SDS011;65482;50.240;14.302;2023-11-21T03:53:55;4.60;;;1.52;;
76593;SDS011;65482;50.240;14.302;2023-11-21T03:56:20;5.55;;;1.63;;
76593;SDS011;65482;50.240;14.302;2023-11-21T03:58:48;2.80;;;1.40;;
76593;SDS011;65482;50.240;14.302;2023-11-21T04:01:24;2.88;;;1.42;;
76593;SDS011;65482;50.240;14.302;2023-11-21T04:03:50;3.38;;;1.70;;
76593;SDS011;65482;50.240;14.302;2023-11-21T04:06:16;3.08;;;1.42;;
76593;SDS011;65482;50.240;14.302;2023-11-21T04:08:43;4.25;;;1.55;;
76593;SDS011;65482;50.240;14.302;2023-11-21T04:11:10;1.88;;;1.30;;
76593;SDS011;65482;50.240;14.302;2023-11-21T04:13:39;3.00;;;1.48;;
76593;SDS011;65482;50.240;14.302;2023-11-21T04:16:08;3.95;;;1.33;;
76593;SDS011;65482;50.240;14.302;2023-11-21T04:18:35;3.53;;;1.80;;
76593;SDS011;65482;50.240;14.302;2023-11-21T04:21:01;2.63;;;1.50;;
76593;SDS011;65482;50.240;14.302;2023-11-21T04:23:28;4.15;;;1.63;;
76593;SDS011;65482;50.240;14.302;2023-11-21T04:25:55;3.72;;;1.42;;
76593;SDS011;65482;50.240;14.302;2023-11-21T04:28:22;4.60;;;1.50;;
76593;SDS011;65482;50.240;14.302;2023-11-21T04:30:49;4.20;;;1.67;;
76593;SDS011;65482;50.240;14.302;2023-11-21T04:33:15;4.18;;;1.80;;
76593;SDS011;65482;50.240;14.302;2023-11-21T04:35:41;4.70;;;1.65;;
76593;SDS011;65482;50.240;14.302;2023-11-21T04:38:07;5.20;;;1.70;;
76593;SDS011;65482;50.240;14.302;2023-11-21T04:40:32;2.88;;;1.65;;
76593;SDS011;65482;50.240;14.302;2023-11-21T04:42:58;4.45;;;1.65;;
76593;SDS011;65482;50.240;14.302;2023-11-21T04:45:24;5.00;;;2.17;;
76593;SDS011;65482;50.240;14.302;2023-11-21T04:47:49;4.50;;;1.83;;
76593;SDS011;65482;50.240;14.302;2023-11-21T04:50:15;3.35;;;1.90;;
76593;SDS011;65482;50.240;14.302;2023-11-21T04:52:40;2.60;;;1.50;;
76593;SDS011;65482;50.240;14.302;2023-11-21T04:55:06;2.85;;;1.90;;
76593;SDS011;65482;50.240;14.302;2023-11-21T04:57:35;3.33;;;1.88;;
76593;SDS011;65482;50.240;14.302;2023-11-21T05:00:02;3.55;;;2.00;;
76593;SDS011;65482;50.240;14.302;2023-11-21T05:02:31;3.92;;;1.52;;
76593;SDS011;65482;50.240;14.302;2023-11-21T05:04:59;3.42;;;1.67;;
76593;SDS011;65482;50.240;14.302;2023-11-21T05:07:25;3.22;;;1.90;;
76593;SDS011;65482;50.240;14.302;2023-11-21T05:09:54;2.67;;;1.80;;
76593;SDS011;65482;50.240;14.302;2023-11-21T05:12:21;4.72;;;1.95;;
76593;SDS011;65482;50.240;14.302;2023-11-21T05:14:49;4.32;;;1.83;;
76593;SDS011;65482;50.240;14.302;2023-11-21T05:17:14;3.75;;;1.95;;
76593;SDS011;65482;50.240;14.302;2023-11-21T05:19:40;3.92;;;1.98;;
76593;SDS011;65482;50.240;14.302;2023-11-21T05:22:06;3.60;;;1.92;;
76593;SDS011;65482;50.240;14.302;2023-11-21T05:24:32;2.80;;;2.10;;
76593;SDS011;65482;50.240;14.302;2023-11-21T05:26:57;3.03;;;2.17;;
76593;SDS011;65482;50.240;14.302;2023-11-21T05:29:23;3.95;;;2.00;;
76593;SDS011;65482;50.240;14.302;2023-11-21T05:31:48;3.03;;;1.92;;
76593;SDS011;65482;50.240;14.302;2023-11-21T05:34:14;3.40;;;2.10;;
76593;SDS011;65482;50.240;14.302;2023-11-21T05:36:42;5.85;;;1.85;;
76593;SDS011;65482;50.240;14.302;2023-11-21T05:39:08;5.65;;;2.03;;
76593;SDS011;65482;50.240;14.302;2023-11-21T05:41:35;3.47;;;1.90;;
76593;SDS011;65482;50.240;14.302;2023-11-21T05:44:00;3.60;;;1.70;;
76593;SDS011;65482;50.240;14.302;2023-11-21T05:46:27;2.28;;;1.70;;
76593;SDS011;65482;50.240;14.302;2023-11-21T05:48:52;4.80;;;2.10;;
76593;SDS011;65482;50.240;14.302;2023-11-21T05:51:18;3.38;;;1.60;;
76593;SDS011;65482;50.240;14.302;2023-11-21T05:53:44;2.67;;;2.10;;
76593;SDS011;65482;50.240;14.302;2023-11-21T05:56:09;3.70;;;2.10;;
76593;SDS011;65482;50.240;14.302;2023-11-21T05:58:35;5.60;;;2.40;;
76593;SDS011;65482;50.240;14.302;2023-11-21T06:01:01;4.72;;;2.22;;
76593;SDS011;65482;50.240;14.302;2023-11-21T06:03:28;2.65;;;1.70;;
76593;SDS011;65482;50.240;14.302;2023-11-21T06:05:53;4.60;;;1.98;;
76593;SDS011;65482;50.240;14.302;2023-11-21T06:08:19;3.67;;;1.90;;
76593;SDS011;65482;50.240;14.302;2023-11-21T06:10:44;3.47;;;2.17;;
76593;SDS011;65482;50.240;14.302;2023-11-21T06:13:10;3.53;;;2.10;;
76593;SDS011;65482;50.240;14.302;2023-11-21T06:15:36;5.45;;;2.20;;
76593;SDS011;65482;50.240;14.302;2023-11-21T06:18:01;2.97;;;1.60;;
76593;SDS011;65482;50.240;14.302;2023-11-21T06:20:27;2.22;;;1.55;;
76593;SDS011;65482;50.240;14.302;2023-11-21T06:22:53;5.13;;;1.80;;
76593;SDS011;65482;50.240;14.302;2023-11-21T06:25:19;2.38;;;1.67;;
76593;SDS011;65482;50.240;14.302;2023-11-21T06:27:45;3.83;;;2.22;;
76593;SDS011;65482;50.240;14.302;2023-11-21T06:30:12;3.22;;;1.90;;
76593;SDS011;65482;50.240;14.302;2023-11-21T06:32:39;6.15;;;2.00;;
76593;SDS011;65482;50.240;14.302;2023-11-21T06:35:05;3.63;;;1.85;;
76593;SDS011;65482;50.240;14.302;2023-11-21T06:37:31;3.95;;;2.10;;
76593;SDS011;65482;50.240;14.302;2023-11-21T06:39:58;4.70;;;2.30;;
76593;SDS011;65482;50.240;14.302;2023-11-21T06:42:24;2.35;;;1.85;;
76593;SDS011;65482;50.240;14.302;2023-11-21T06:44:51;5.68;;;1.98;;
76593;SDS011;65482;50.240;14.302;2023-11-21T06:47:19;3.88;;;1.80;;
76593;SDS011;65482;50.240;14.302;2023-11-21T06:49:49;4.25;;;2.13;;
76593;SDS011;65482;50.240;14.302;2023-11-21T06:53:38;3.97;;;2.70;;
76593;SDS011;65482;50.240;14.302;2023-11-21T06:56:34;3.92;;;2.10;;
76593;SDS011;65482;50.240;14.302;2023-11-21T06:58:59;4.28;;;2.30;;
76593;SDS011;65482;50.240;14.302;2023-11-21T07:01:28;4.07;;;2.05;;
76593;SDS011;65482;50.240;14.302;2023-11-21T07:04:05;3.80;;;2.05;;
76593;SDS011;65482;50.240;14.302;2023-11-21T07:06:33;5.20;;;1.88;;
76593;SDS011;65482;50.240;14.302;2023-11-21T07:09:03;3.50;;;2.00;;
76593;SDS011;65482;50.240;14.302;2023-11-21T07:11:32;2.45;;;1.80;;
76593;SDS011;65482;50.240;14.302;2023-11-21T07:13:58;3.53;;;1.92;;
76593;SDS011;65482;50.240;14.302;2023-11-21T07:16:31;2.47;;;1.67;;
76593;SDS011;65482;50.240;14.302;2023-11-21T07:18:58;4.53;;;2.00;;
76593;SDS011;65482;50.240;14.302;2023-11-21T07:21:27;5.32;;;2.90;;
76593;SDS011;65482;50.240;14.302;2023-11-21T07:23:55;4.43;;;2.90;;
76593;SDS011;65482;50.240;14.302;2023-11-21T07:26:21;4.20;;;2.50;;
76593;SDS011;65482;50.240;14.302;2023-11-21T07:28:47;5.95;;;2.30;;
76593;SDS011;65482;50.240;14.302;2023-11-21T07:31:13;5.30;;;2.20;;
76593;SDS011;65482;50.240;14.302;2023-11-21T07:33:39;5.03;;;2.33;;
76593;SDS011;65482;50.240;14.302;2023-11-21T07:36:08;4.50;;;2.33;;
76593;SDS011;65482;50.240;14.302;2023-11-21T07:38:35;3.00;;;1.85;;
76593;SDS011;65482;50.240;14.302;2023-11-21T07:41:05;5.05;;;2.05;;
76593;SDS011;65482;50.240;14.302;2023-11-21T07:43:33;4.03;;;2.22;;
76593;SDS011;65482;50.240;14.302;2023-11-21T07:46:01;4.57;;;2.10;;
76593;SDS011;65482;50.240;14.302;2023-11-21T07:48:28;3.35;;;1.80;;
76593;SDS011;65482;50.240;14.302;2023-11-21T07:50:58;3.67;;;1.83;;
76593;SDS011;65482;50.240;14.302;2023-11-21T07:53:27;3.97;;;2.13;;
76593;SDS011;65482;50.240;14.302;2023-11-21T07:55:58;4.97;;;2.22;;
76593;SDS011;65482;50.240;14.302;2023-11-21T07:58:32;3.38;;;1.95;;
76593;SDS011;65482;50.240;14.302;2023-11-21T08:01:01;4.55;;;2.00;;
76593;SDS011;65482;50.240;14.302;2023-11-21T08:03:28;6.78;;;2.15;;
76593;SDS011;65482;50.240;14.302;2023-11-21T08:05:58;3.15;;;1.70;;
76593;SDS011;65482;50.240;14.302;2023-11-21T08:08:25;5.00;;;2.13;;
76593;SDS011;65482;50.240;14.302;2023-11-21T08:10:57;3.63;;;1.85;;
76593;SDS011;65482;50.240;14.302;2023-11-21T08:13:23;4.55;;;1.92;;
76593;SDS011;65482;50.240;14.302;2023-11-21T08:15:50;2.70;;;1.80;;
76593;SDS011;65482;50.240;14.302;2023-11-21T08:18:19;3.42;;;2.22;;
76593;SDS011;65482;50.240;14.302;2023-11-21T08:20:46;2.80;;;1.90;;
76593;SDS011;65482;50.240;14.302;2023-11-21T08:23:15;5.05;;;2.10;;
76593;SDS011;65482;50.240;14.302;2023-11-21T08:25:44;4.63;;;1.90;;
76593;SDS011;65482;50.240;14.302;2023-11-21T08:28:11;8.13;;;2.38;;
76593;SDS011;65482;50.240;14.302;2023-11-21T08:30:37;4.50;;;2.28;;
76593;SDS011;65482;50.240;14.302;2023-11-21T08:33:03;5.03;;;2.15;;
76593;SDS011;65482;50.240;14.302;2023-11-21T08:35:30;4.07;;;2.13;;
76593;SDS011;65482;50.240;14.302;2023-11-21T08:37:56;5.53;;;2.35;;
76593;SDS011;65482;50.240;14.302;2023-11-21T08:40:22;9.05;;;2.40;;
76593;SDS011;65482;50.240;14.302;2023-11-21T08:42:51;5.47;;;2.35;;
76593;SDS011;65482;50.240;14.302;2023-11-21T08:45:37;5.82;;;2.05;;
76593;SDS011;65482;50.240;14.302;2023-11-21T08:48:03;3.60;;;2.15;;
76593;SDS011;65482;50.240;14.302;2023-11-21T08:50:29;6.25;;;2.40;;
76593;SDS011;65482;50.240;14.302;2023-11-21T08:52:55;5.40;;;2.60;;
76593;SDS011;65482;50.240;14.302;2023-11-21T08:55:21;4.65;;;2.15;;
76593;SDS011;65482;50.240;14.302;2023-11-21T08:57:47;4.97;;;2.60;;
76593;SDS011;65482;50.240;14.302;2023-11-21T09:00:13;4.25;;;2.03;;
76593;SDS011;65482;50.240;14.302;2023-11-21T09:02:44;4.72;;;2.20;;
76593;SDS011;65482;50.240;14.302;2023-11-21T09:05:10;7.82;;;2.13;;
76593;SDS011;65482;50.240;14.302;2023-11-21T09:07:38;4.63;;;2.30;;
76593;SDS011;65482;50.240;14.302;2023-11-21T09:10:06;3.88;;;2.10;;
76593;SDS011;65482;50.240;14.302;2023-11-21T09:12:36;6.47;;;2.25;;
76593;SDS011;65482;50.240;14.302;2023-11-21T09:15:05;6.22;;;2.20;;
76593;SDS011;65482;50.240;14.302;2023-11-21T09:17:32;5.43;;;2.00;;
76593;SDS011;65482;50.240;14.302;2023-11-21T09:19:59;5.38;;;2.33;;
76593;SDS011;65482;50.240;14.302;2023-11-21T09:22:25;5.07;;;2.17;;
76593;SDS011;65482;50.240;14.302;2023-11-21T09:24:51;5.35;;;2.47;;
76593;SDS011;65482;50.240;14.302;2023-11-21T09:27:17;5.65;;;2.40;;
76593;SDS011;65482;50.240;14.302;2023-11-21T09:29:43;6.90;;;2.53;;
76593;SDS011;65482;50.240;14.302;2023-11-21T09:32:09;4.47;;;2.38;;
76593;SDS011;65482;50.240;14.302;2023-11-21T09:34:39;3.33;;;2.15;;
76593;SDS011;65482;50.240;14.302;2023-11-21T09:37:05;8.95;;;2.90;;
76593;SDS011;65482;50.240;14.302;2023-11-21T09:39:32;4.65;;;2.65;;
76593;SDS011;65482;50.240;14.302;2023-11-21T09:42:12;5.50;;;2.47;;
76593;SDS011;65482;50.240;14.302;2023-11-21T09:47:35;3.67;;;2.45;;
76593;SDS011;65482;50.240;14.302;2023-11-21T09:50:04;4.20;;;2.35;;
76593;SDS011;65482;50.240;14.302;2023-11-21T09:52:33;4.60;;;2.38;;
76593;SDS011;65482;50.240;14.302;2023-11-21T09:55:23;3.95;;;2.20;;
76593;SDS011;65482;50.240;14.302;2023-11-21T09:57:58;4.80;;;2.72;;
76593;SDS011;65482;50.240;14.302;2023-11-21T10:00:34;5.90;;;2.35;;
76593;SDS011;65482;50.240;14.302;2023-11-21T10:03:00;3.08;;;2.00;;
76593;SDS011;65482;50.240;14.302;2023-11-21T10:05:27;4.50;;;2.10;;
76593;SDS011;65482;50.240;14.302;2023-11-21T10:07:53;5.18;;;2.40;;
76593;SDS011;65482;50.240;14.302;2023-11-21T10:10:22;5.45;;;2.20;;
76593;SDS011;65482;50.240;14.302;2023-11-21T10:12:50;6.13;;;2.75;;
76593;SDS011;65482;50.240;14.302;2023-11-21T10:15:21;5.90;;;2.22;;
76593;SDS011;65482;50.240;14.302;2023-11-21T10:17:48;5.20;;;1.92;;
76593;SDS011;65482;50.240;14.302;2023-11-21T10:20:14;5.82;;;2.30;;
76593;SDS011;65482;50.240;14.302;2023-11-21T10:22:42;5.53;;;2.45;;
76593;SDS011;65482;50.240;14.302;2023-11-21T10:25:12;4.88;;;2.20;;
76593;SDS011;65482;50.240;14.302;2023-11-21T10:27:46;5.35;;;1.80;;
76593;SDS011;65482;50.240;14.302;2023-11-21T10:30:20;9.48;;;2.42;;
76593;SDS011;65482;50.240;14.302;2023-11-21T10:32:46;4.63;;;2.65;;
76593;SDS011;65482;50.240;14.302;2023-11-21T10:38:48;9.38;;;2.35;;
76593;SDS011;65482;50.240;14.302;2023-11-21T10:41:20;4.68;;;2.65;;
76593;SDS011;65482;50.240;14.302;2023-11-21T10:43:47;6.45;;;2.85;;
76593;SDS011;65482;50.240;14.302;2023-11-21T10:46:13;5.13;;;2.80;;
76593;SDS011;65482;50.240;14.302;2023-11-21T10:48:41;4.85;;;2.55;;
76593;SDS011;65482;50.240;14.302;2023-11-21T10:51:08;6.00;;;2.40;;
76593;SDS011;65482;50.240;14.302;2023-11-21T10:53:44;7.10;;;2.53;;
76593;SDS011;65482;50.240;14.302;2023-11-21T11:04:31;6.43;;;2.55;;
76593;SDS011;65482;50.240;14.302;2023-11-21T11:07:03;5.07;;;2.47;;
76593;SDS011;65482;50.240;14.302;2023-11-21T11:09:30;3.08;;;2.05;;
76593;SDS011;65482;50.240;14.302;2023-11-21T11:11:59;4.38;;;2.28;;
76593;SDS011;65482;50.240;14.302;2023-11-21T11:14:27;4.82;;;2.65;;
76593;SDS011;65482;50.240;14.302;2023-11-21T11:17:10;4.68;;;2.40;;
76593;SDS011;65482;50.240;14.302;2023-11-21T11:19:38;5.15;;;2.38;;
76593;SDS011;65482;50.240;14.302;2023-11-21T11:25:24;4.50;;;2.70;;
76593;SDS011;65482;50.240;14.302;2023-11-21T11:31:00;5.55;;;2.25;;
76593;SDS011;65482;50.240;14.302;2023-11-21T11:34:32;6.30;;;2.97;;
76593;SDS011;65482;50.240;14.302;2023-11-21T11:36:48;4.05;;;2.45;;
76593;SDS011;65482;50.240;14.302;2023-11-21T11:42:14;5.88;;;2.72;;
76593;SDS011;65482;50.240;14.302;2023-11-21T11:58:05;7.53;;;4.40;;
76593;SDS011;65482;50.240;14.302;2023-11-21T12:03:39;7.82;;;3.40;;
76593;SDS011;65482;50.240;14.302;2023-11-21T12:29:07;5.50;;;3.20;;
76593;SDS011;65482;50.240;14.302;2023-11-21T12:32:09;6.05;;;3.00;;
76593;SDS011;65482;50.240;14.302;2023-11-21T12:34:46;7.38;;;3.60;;
76593;SDS011;65482;50.240;14.302;2023-11-21T12:37:15;4.90;;;3.08;;
76593;SDS011;65482;50.240;14.302;2023-11-21T12:39:41;8.18;;;3.10;;
76593;SDS011;65482;50.240;14.302;2023-11-21T12:42:07;7.55;;;3.60;;
76593;SDS011;65482;50.240;14.302;2023-11-21T12:44:35;6.50;;;3.47;;
76593;SDS011;65482;50.240;14.302;2023-11-21T12:50:28;8.48;;;3.30;;
76593;SDS011;65482;50.240;14.302;2023-11-21T12:52:58;7.70;;;3.08;;
76593;SDS011;65482;50.240;14.302;2023-11-21T12:55:25;4.40;;;2.72;;
76593;SDS011;65482;50.240;14.302;2023-11-21T13:01:25;4.70;;;3.10;;
76593;SDS011;65482;50.240;14.302;2023-11-21T13:03:58;5.32;;;3.22;;
76593;SDS011;65482;50.240;14.302;2023-11-21T13:06:24;8.73;;;2.53;;
76593;SDS011;65482;50.240;14.302;2023-11-21T13:08:51;5.65;;;2.85;;
76593;SDS011;65482;50.240;14.302;2023-11-21T13:11:18;6.97;;;3.00;;
76593;SDS011;65482;50.240;14.302;2023-11-21T13:13:44;5.00;;;2.95;;
76593;SDS011;65482;50.240;14.302;2023-11-21T13:16:10;5.45;;;3.20;;
76593;SDS011;65482;50.240;14.302;2023-11-21T13:18:38;7.03;;;3.20;;
76593;SDS011;65482;50.240;14.302;2023-11-21T13:21:08;5.15;;;3.63;;
76593;SDS011;65482;50.240;14.302;2023-11-21T13:23:39;8.25;;;3.70;;
76593;SDS011;65482;50.240;14.302;2023-11-21T13:26:07;7.13;;;3.20;;
76593;SDS011;65482;50.240;14.302;2023-11-21T13:28:33;6.10;;;3.03;;
76593;SDS011;65482;50.240;14.302;2023-11-21T13:31:24;5.90;;;3.60;;
76593;SDS011;65482;50.240;14.302;2023-11-21T13:33:56;7.85;;;3.90;;
76593;SDS011;65482;50.240;14.302;2023-11-21T13:36:32;6.32;;;4.28;;
76593;SDS011;65482;50.240;14.302;2023-11-21T13:39:03;10.27;;;5.20;;
76593;SDS011;65482;50.240;14.302;2023-11-21T14:00:18;10.07;;;5.22;;
76593;SDS011;65482;50.240;14.302;2023-11-21T14:03:12;9.77;;;5.65;;
76593;SDS011;65482;50.240;14.302;2023-11-21T14:05:53;11.20;;;6.05;;
76593;SDS011;65482;50.240;14.302;2023-11-21T14:09:09;8.45;;;4.85;;
76593;SDS011;65482;50.240;14.302;2023-11-21T14:11:43;7.65;;;4.53;;
76593;SDS011;65482;50.240;14.302;2023-11-21T14:14:29;9.18;;;5.00;;
76593;SDS011;65482;50.240;14.302;2023-11-21T14:17:09;8.13;;;4.53;;
76593;SDS011;65482;50.240;14.302;2023-11-21T14:19:41;9.88;;;4.90;;
76593;SDS011;65482;50.240;14.302;2023-11-21T14:22:10;9.23;;;5.03;;
76593;SDS011;65482;50.240;14.302;2023-11-21T14:24:44;11.48;;;5.90;;
76593;SDS011;65482;50.240;14.302;2023-11-21T14:27:22;10.98;;;6.00;;
76593;SDS011;65482;50.240;14.302;2023-11-21T14:29:54;9.05;;;5.32;;
76593;SDS011;65482;50.240;14.302;2023-11-21T14:32:34;8.48;;;5.15;;
76593;SDS011;65482;50.240;14.302;2023-11-21T14:35:06;9.15;;;5.30;;
76593;SDS011;65482;50.240;14.302;2023-11-21T14:37:34;8.55;;;5.38;;
76593;SDS011;65482;50.240;14.302;2023-11-21T14:40:00;9.07;;;5.80;;
76593;SDS011;65482;50.240;14.302;2023-11-21T14:42:26;7.13;;;4.43;;
76593;SDS011;65482;50.240;14.302;2023-11-21T14:44:54;7.53;;;3.28;;
76593;SDS011;65482;50.240;14.302;2023-11-21T14:47:29;6.35;;;3.35;;
76593;SDS011;65482;50.240;14.302;2023-11-21T14:50:00;5.25;;;3.22;;
76593;SDS011;65482;50.240;14.302;2023-11-21T14:52:45;5.10;;;3.30;;
76593;SDS011;65482;50.240;14.302;2023-11-21T14:55:24;3.90;;;2.75;;
76593;SDS011;65482;50.240;14.302;2023-11-21T14:58:00;4.72;;;3.10;;
76593;SDS011;65482;50.240;14.302;2023-11-21T15:00:29;5.30;;;2.90;;
76593;SDS011;65482;50.240;14.302;2023-11-21T15:03:32;5.30;;;3.25;;
76593;SDS011;65482;50.240;14.302;2023-11-21T15:05:57;6.57;;;3.13;;
76593;SDS011;65482;50.240;14.302;2023-11-21T15:08:44;6.65;;;3.30;;
76593;SDS011;65482;50.240;14.302;2023-11-21T15:13:44;5.43;;;3.25;;
76593;SDS011;65482;50.240;14.302;2023-11-21T15:16:14;8.20;;;3.55;;
76593;SDS011;65482;50.240;14.302;2023-11-21T15:18:40;6.45;;;3.60;;
76593;SDS011;65482;50.240;14.302;2023-11-21T15:21:05;5.72;;;3.72;;
76593;SDS011;65482;50.240;14.302;2023-11-21T15:23:34;5.38;;;3.53;;
76593;SDS011;65482;50.240;14.302;2023-11-21T15:26:00;6.00;;;3.63;;
76593;SDS011;65482;50.240;14.302;2023-11-21T15:28:27;5.95;;;3.65;;
76593;SDS011;65482;50.240;14.302;2023-11-21T15:30:54;7.90;;;3.58;;
76593;SDS011;65482;50.240;14.302;2023-11-21T15:33:19;6.03;;;3.58;;
76593;SDS011;65482;50.240;14.302;2023-11-21T15:35:45;6.45;;;3.60;;
76593;SDS011;65482;50.240;14.302;2023-11-21T15:38:10;5.57;;;3.85;;
76593;SDS011;65482;50.240;14.302;2023-11-21T15:40:37;4.28;;;3.17;;
76593;SDS011;65482;50.240;14.302;2023-11-21T15:43:02;5.43;;;3.47;;
76593;SDS011;65482;50.240;14.302;2023-11-21T15:45:28;5.93;;;3.60;;
76593;SDS011;65482;50.240;14.302;2023-11-21T15:47:54;10.05;;;6.68;;
76593;SDS011;65482;50.240;14.302;2023-11-21T15:50:22;7.15;;;4.20;;
76593;SDS011;65482;50.240;14.302;2023-11-21T15:52:47;5.45;;;3.67;;
76593;SDS011;65482;50.240;14.302;2023-11-21T15:55:13;6.97;;;3.95;;
76593;SDS011;65482;50.240;14.302;2023-11-21T15:57:39;7.70;;;3.78;;
76593;SDS011;65482;50.240;14.302;2023-11-21T16:00:04;7.85;;;4.85;;
76593;SDS011;65482;50.240;14.302;2023-11-21T16:02:36;5.97;;;4.07;;
76593;SDS011;65482;50.240;14.302;2023-11-21T16:05:03;7.93;;;4.68;;
76593;SDS011;65482;50.240;14.302;2023-11-21T16:07:30;8.30;;;4.30;;
76593;SDS011;65482;50.240;14.302;2023-11-21T16:09:57;5.85;;;4.15;;
76593;SDS011;65482;50.240;14.302;2023-11-21T16:12:23;5.88;;;4.30;;
76593;SDS011;65482;50.240;14.302;2023-11-21T16:14:48;5.97;;;4.22;;